Flight Track Log - Related Links

Times and Time Zones

All times are in EDT time to prevent confusion due to time zone crossing. See the EZY135 flight status page for this flight to view local times or setup timezone preferences in your user account.

Time Position Orientation Groundspeed Altitude Reporting Facility
EDT Latitude Longitude Course Direction KTS MPH feet Rate Location/Type
Mon 12:00:00 PM 53.5711 -2.8896 301° West  Level Estimated
Mon 12:01:00 PM 53.5981 -2.9669 300° West  Level Estimated
Mon 12:02:00 PM 53.6250 -3.0442 300° West  Level Estimated
Mon 12:03:00 PM 53.6518 -3.1217 300° West  Level Estimated
Mon 12:04:00 PM 53.6786 -3.1993 300° West  Level Estimated
Mon 12:05:00 PM 53.7054 -3.2769 300° West  Level Estimated
Mon 12:06:00 PM 53.7321 -3.3547 300° West  Level Estimated
Mon 12:07:00 PM 53.7587 -3.4326 300° West  Level Estimated
Mon 12:08:00 PM 53.7853 -3.5106 300° West  Level Estimated
Mon 12:09:00 PM 53.8119 -3.5886 300° West  Level Estimated
Mon 12:10:00 PM 53.8384 -3.6668 300° West  Level Estimated
Mon 12:11:00 PM 53.8648 -3.7450 300° West  Level Estimated
Mon 12:12:00 PM 53.8912 -3.8234 300° West  Level Estimated
Mon 12:13:00 PM 53.9176 -3.9019 300° West  Level Estimated
Mon 12:14:00 PM 53.9462 -3.9873 300° West  Level Estimated
Mon 12:15:00 PM 53.9747 -4.0728 300° West  Level Estimated
Mon 12:16:00 PM 54.0032 -4.1584 300° West  Level Estimated
Mon 12:17:00 PM 54.0316 -4.2441 299° West  Level Estimated
Mon 12:18:00 PM 54.0599 -4.3300 299° West  Level Estimated
Mon 12:19:00 PM 54.0882 -4.4160 299° West  Level Estimated
Mon 12:20:00 PM 54.1164 -4.5021 299° West  Level Estimated
Mon 12:21:00 PM 54.1445 -4.5883 299° West  Level Estimated
Mon 12:22:00 PM 54.1726 -4.6746 299° West  Level Estimated
Mon 12:23:00 PM 54.2019 -4.7650 299° West  Level Estimated
Mon 12:24:00 PM 54.2311 -4.8555 299° West  Level Estimated
Mon 12:25:00 PM 54.2603 -4.9461 299° West  Level Estimated
Mon 12:26:00 PM 54.2894 -5.0369 299° West  Level Estimated
Mon 12:27:00 PM 54.3184 -5.1278 299° West  Level Estimated
Mon 12:28:00 PM 54.3474 -5.2188 299° West  Level Estimated
Mon 12:29:00 PM 54.3763 -5.3100 299° West  Level Estimated
Mon 12:30:00 PM 54.4051 -5.4013 299° West  Level Estimated
Mon 12:31:00 PM 54.4338 -5.4927 298° West  Level Estimated
Mon 12:32:00 PM 54.4625 -5.5842 298° West  Level Estimated
Mon 12:33:00 PM 54.4911 -5.6759 298° West  Level Estimated
Mon 12:34:00 PM 54.5197 -5.7677 298° West  Level Estimated
Mon 12:35:00 PM 54.5482 -5.8596 298° West  Level Estimated
Mon 12:36:00 PM 54.5766 -5.9516 298° West  Level Estimated
Mon 12:37:00 PM 54.6049 -6.0438 298° West  Level Estimated
Mon 12:38:00 PM 54.6332 -6.1361 298° West  Level Estimated
Mon 12:39:00 PM 54.6575 -6.2158 298° West  Level Estimated
Mon 12:40:00 PM 54.6575 -6.2158 270° West  Level Estimated
Mon 12:41:00 PM 54.6575 -6.2158 270° West  Level Estimated
Mon 12:42:00 PM 54.6575 -6.2158 270° West  Level Estimated
Mon 12:43:00 PM 54.6575 -6.2158 270° West  Level Estimated
Mon 12:44:00 PM 54.6575 -6.2158 270° West  Level Estimated
Mon 12:45:00 PM 54.6575 -6.2158 270° West  Level Estimated
Mon 12:46:00 PM 54.6575 -6.2158 270° West  Level Estimated
Mon 12:47:00 PM 54.6575 -6.2158 270° West  Level Estimated
Mon 12:48:00 PM 54.6575 -6.2158 270° West  Level Estimated
Mon 12:49:00 PM 54.6575 -6.2158 270° West  Level Estimated
Mon 12:50:00 PM 54.6575 -6.2158 270° West  Level Estimated
Mon 12:51:00 PM 54.6575 -6.2158 270° West  Level Estimated
Mon 12:52:00 PM 54.6575 -6.2158 270° West  Level Estimated

Login

Don't have an account? Register now (free) for customized features, flight alerts, and more!